Time;durP1;ratioP1;P1;durP2;ratioP2;P2;SDS_P1;SDS_P2;PMS_P1;PMS_P2;Temp;Humidity;BMP_temperature;BMP_pressure;BME280_temperature;BME280_humidity;BME280_pressure;Samples;Min_cycle;Max_cycle;Signal;HPM_P1;HPM_P2
2021/12/23 00:01:00;;;;;;;12.60;8.57;;;;;;;-1.65;63.24;95793.19;5056720;28;20206;-78
2021/12/23 00:03:27;;;;;;;10.27;8.07;;;;;;;-1.71;64.26;95789.91;5056394;28;20254;-78
2021/12/23 00:05:54;;;;;;;8.18;6.95;;;;;;;-1.65;64.19;95789.78;5056227;28;20764;-78
2021/12/23 00:08:23;;;;;;;10.40;7.07;;;;;;;-1.66;64.26;95790.66;5037399;28;20272;-78
2021/12/23 00:10:50;;;;;;;10.60;7.40;;;;;;;-1.69;64.87;95791.56;5055756;28;20202;-78
2021/12/23 00:13:17;;;;;;;9.90;7.03;;;;;;;-1.73;64.59;95789.13;5055256;28;20202;-78
2021/12/23 00:16:02;;;;;;;15.60;7.80;;;;;;;-1.75;64.94;95790.84;5055377;28;20223;-78
2021/12/23 00:18:46;;;;;;;14.20;9.85;;;;;;;-1.82;64.89;95795.28;5055541;28;20587;-78
2021/12/23 00:24:01;;;;;;;10.75;8.70;;;;;;;-1.95;65.74;95783.59;5055389;28;20205;-78
2021/12/23 00:26:29;;;;;;;11.35;7.80;;;;;;;-1.96;65.28;95785.31;5056050;28;20578;-78
2021/12/23 00:28:59;;;;;;;12.85;7.63;;;;;;;-1.92;65.29;95796.38;5055348;28;20202;-78
2021/12/23 00:31:26;;;;;;;19.65;7.90;;;;;;;-2.03;65.27;95796.59;5036647;28;20574;-78
2021/12/23 00:33:53;;;;;;;10.20;6.57;;;;;;;-1.93;64.85;95798.09;5055151;28;20207;-78
2021/12/23 00:36:20;;;;;;;12.13;7.50;;;;;;;-1.88;65.11;95800.56;5055405;28;20199;-78
2021/12/23 00:38:51;;;;;;;12.88;6.65;;;;;;;-1.81;64.78;95806.41;5019827;28;20226;-78
2021/12/23 00:41:22;;;;;;;13.00;7.30;;;;;;;-1.82;64.51;95809.88;5054837;28;20290;-78
2021/12/23 00:43:49;;;;;;;8.88;6.75;;;;;;;-1.80;64.56;95810.69;5055336;28;20502;-78
2021/12/23 00:46:16;;;;;;;8.35;6.97;;;;;;;-1.93;64.42;95803.25;5054958;28;20203;-78
2021/12/23 00:48:43;;;;;;;16.42;10.18;;;;;;;-1.89;65.37;95812.59;5054780;28;20203;-78
2021/12/23 00:51:11;;;;;;;14.85;8.40;;;;;;;-1.95;65.25;95810.16;5054756;28;20206;-78
2021/12/23 00:53:40;;;;;;;13.70;10.07;;;;;;;-1.92;65.37;95804.94;5055379;28;20304;-78
2021/12/23 00:56:09;;;;;;;15.63;8.90;;;;;;;-1.96;66.22;95805.91;5054964;28;20289;-78
2021/12/23 00:58:38;;;;;;;12.50;8.02;;;;;;;-1.92;66.43;95796.38;5054504;28;20258;-78
2021/12/23 01:01:05;;;;;;;10.38;7.45;;;;;;;-1.91;65.43;95795.50;5054986;28;20203;-78
2021/12/23 01:03:32;;;;;;;13.20;7.70;;;;;;;-1.92;65.84;95786.94;5054873;28;20645;-78
2021/12/23 01:05:59;;;;;;;12.35;8.75;;;;;;;-1.99;64.96;95790.53;5053795;28;20207;-78
2021/12/23 01:08:26;;;;;;;13.82;9.50;;;;;;;-2.06;64.94;95782.97;5054486;28;20207;-77
2021/12/23 01:10:56;;;;;;;12.27;7.93;;;;;;;-2.09;64.88;95781.31;5054314;28;20202;-78
2021/12/23 01:13:26;;;;;;;13.73;8.13;;;;;;;-2.13;65.26;95771.13;5054565;28;20213;-78
2021/12/23 01:16:01;;;;;;;16.02;9.05;;;;;;;-2.14;65.19;95788.28;5054352;28;20207;-78
2021/12/23 01:18:31;;;;;;;12.05;8.07;;;;;;;-2.14;65.30;95778.00;5054097;28;20232;-78
2021/12/23 01:21:15;;;;;;;8.73;6.72;;;;;;;-2.10;65.33;95782.19;5054341;28;20301;-78
2021/12/23 01:23:44;;;;;;;15.13;6.97;;;;;;;-2.10;65.60;95779.59;5053939;28;20260;-78
2021/12/23 01:26:17;;;;;;;12.75;7.72;;;;;;;-2.06;65.98;95780.38;5054486;28;20206;-78
2021/12/23 01:28:44;;;;;;;11.40;7.28;;;;;;;-2.03;65.54;95778.59;5054537;28;20202;-78
2021/12/23 01:31:12;;;;;;;10.10;6.80;;;;;;;-1.99;65.58;95780.25;5054559;28;20203;-78
2021/12/23 01:33:39;;;;;;;11.50;6.80;;;;;;;-2.01;65.36;95776.03;5054191;28;20209;-78
2021/12/23 01:36:09;;;;;;;9.15;6.90;;;;;;;-2.02;64.53;95759.75;5054112;28;20202;-77
2021/12/23 01:38:36;;;;;;;9.90;5.60;;;;;;;-2.12;64.75;95770.25;5053463;28;20230;-78
2021/12/23 01:41:04;;;;;;;11.77;5.28;;;;;;;-2.18;64.55;95778.94;5053776;28;20233;-78
2021/12/23 01:43:30;;;;;;;9.60;6.47;;;;;;;-2.15;64.47;95768.59;5053961;28;20214;-78
2021/12/23 01:45:57;;;;;;;11.25;6.88;;;;;;;-2.28;64.12;95764.59;5053865;28;20203;-78
2021/12/23 01:48:26;;;;;;;9.85;6.07;;;;;;;-2.30;64.61;95761.22;5053686;28;20206;-78
2021/12/23 01:50:53;;;;;;;7.35;6.25;;;;;;;-2.36;64.79;95763.88;5053662;28;20202;-78
2021/12/23 01:53:20;;;;;;;7.00;6.30;;;;;;;-2.33;64.61;95753.53;5053781;28;20291;-78
2021/12/23 01:55:47;;;;;;;8.80;7.20;;;;;;;-2.43;65.15;95757.19;5056454;28;20206;-77
2021/12/23 01:58:15;;;;;;;8.20;5.70;;;;;;;-2.43;65.09;95754.63;5053937;28;20203;-78
2021/12/23 02:00:49;;;;;;;7.93;6.20;;;;;;;-2.47;65.01;95751.28;5034927;28;20205;-78
2021/12/23 02:03:16;;;;;;;10.68;6.22;;;;;;;-2.54;65.50;95754.84;5053623;28;20212;-78
2021/12/23 02:05:49;;;;;;;11.73;7.07;;;;;;;-2.52;65.05;95761.66;5054076;28;20195;-78
2021/12/23 02:08:16;;;;;;;6.15;5.20;;;;;;;-2.48;65.64;95766.72;5019734;28;20202;-78
2021/12/23 02:10:44;;;;;;;8.85;6.63;;;;;;;-2.54;64.79;95765.13;5053518;28;20624;-78
2021/12/23 02:13:13;;;;;;;7.63;5.35;;;;;;;-2.56;65.38;95761.75;5053724;28;20230;-78
2021/12/23 02:15:40;;;;;;;10.32;6.20;;;;;;;-2.59;65.67;95772.94;5053327;28;20209;-78
2021/12/23 02:18:07;;;;;;;15.32;6.65;;;;;;;-2.59;65.50;95772.94;5053091;28;20213;-78
2021/12/23 02:20:36;;;;;;;9.95;6.40;;;;;;;-2.57;66.01;95776.31;5053097;28;20544;-78
2021/12/23 02:23:04;;;;;;;11.93;7.18;;;;;;;-2.52;65.39;95778.78;5053583;28;20234;-78
2021/12/23 02:25:31;;;;;;;12.00;7.53;;;;;;;-2.59;65.10;95772.94;5053540;28;20203;-78
2021/12/23 02:28:03;;;;;;;7.93;7.13;;;;;;;-2.54;66.08;95776.25;5018596;28;20197;-78
2021/12/23 02:30:30;;;;;;;11.48;9.05;;;;;;;-2.62;65.87;95772.97;5053544;28;20210;-78
2021/12/23 02:32:58;;;;;;;23.35;11.77;;;;;;;-2.70;66.58;95764.56;5054190;28;20211;-78
2021/12/23 02:35:28;;;;;;;23.08;14.05;;;;;;;-2.96;68.17;95774.47;5053799;28;20205;-78
2021/12/23 02:37:56;;;;;;;22.77;12.18;;;;;;;-2.96;69.63;95775.31;5053275;28;20209;-78
2021/12/23 02:40:33;;;;;;;35.72;18.20;;;;;;;-2.98;70.31;95769.38;5053345;28;20226;-78
2021/12/23 02:43:11;;;;;;;32.58;20.30;;;;;;;-2.99;70.73;95777.94;5053144;28;20198;-78
2021/12/23 02:45:38;;;;;;;28.83;17.25;;;;;;;-2.92;70.49;95776.13;5053232;28;20203;-78
2021/12/23 02:48:11;;;;;;;30.88;18.33;;;;;;;-2.84;70.27;95779.41;5052765;28;20202;-77
2021/12/23 02:50:38;;;;;;;24.58;15.90;;;;;;;-2.83;70.33;95769.09;5052738;28;20206;-78
2021/12/23 02:53:06;;;;;;;25.80;14.52;;;;;;;-2.76;69.28;95780.09;5052817;28;20564;-78
2021/12/23 02:55:33;;;;;;;29.70;16.00;;;;;;;-2.74;69.72;95777.50;5053138;28;20213;-77
2021/12/23 02:58:00;;;;;;;28.05;13.68;;;;;;;-2.75;69.10;95768.94;5053298;28;20199;-77
2021/12/23 03:00:29;;;;;;;13.18;9.50;;;;;;;-2.72;68.52;95775.75;5053191;28;20229;-78
2021/12/23 03:02:56;;;;;;;9.75;7.93;;;;;;;-2.74;67.48;95768.06;5053474;28;20206;-77
2021/12/23 03:05:23;;;;;;;11.10;7.07;;;;;;;-2.78;67.23;95766.44;5053295;28;20202;-78
2021/12/23 03:07:50;;;;;;;8.85;6.28;;;;;;;-2.78;67.63;95761.31;5052877;28;20218;-77
2021/12/23 03:10:21;;;;;;;12.70;8.27;;;;;;;-2.80;67.00;95757.94;5034442;28;20199;-78
2021/12/23 03:12:49;;;;;;;11.50;7.75;;;;;;;-2.83;67.28;95758.84;5052539;28;20740;-78
2021/12/23 03:15:16;;;;;;;11.35;8.50;;;;;;;-2.83;66.98;95758.00;5052778;28;20202;-78
2021/12/23 03:17:42;;;;;;;10.10;8.30;;;;;;;-2.82;66.56;95755.38;5052607;28;20202;-77
2021/12/23 03:20:10;;;;;;;10.57;6.82;;;;;;;-2.83;66.49;95747.72;5052555;28;20226;-78
2021/12/23 03:22:37;;;;;;;9.60;6.60;;;;;;;-2.80;66.24;95739.94;5052772;28;20241;-78
2021/12/23 03:25:04;;;;;;;7.57;6.30;;;;;;;-2.87;65.74;95746.94;5052907;28;20692;-78
2021/12/23 03:27:33;;;;;;;7.32;6.55;;;;;;;-2.90;66.14;95746.97;5052829;28;20206;-78
2021/12/23 03:30:00;;;;;;;9.52;6.28;;;;;;;-2.86;65.82;95752.91;5056944;28;20209;-78
2021/12/23 03:32:27;;;;;;;8.55;6.35;;;;;;;-2.84;65.74;95743.47;5021887;28;20203;-77
2021/12/23 03:34:53;;;;;;;7.63;6.45;;;;;;;-2.91;65.44;95744.44;5057063;28;20202;-78
2021/12/23 03:37:20;;;;;;;10.45;7.10;;;;;;;-2.95;65.41;95748.78;5056648;28;20206;-78
2021/12/23 03:39:51;;;;;;;8.50;6.13;;;;;;;-2.97;65.63;95754.81;5056889;28;20217;-78
2021/12/23 03:42:17;;;;;;;11.23;6.60;;;;;;;-2.98;66.08;95753.97;5056466;28;20206;-78
2021/12/23 03:44:46;;;;;;;10.00;7.38;;;;;;;-2.96;66.34;95751.38;5056698;28;20202;-77
2021/12/23 03:47:13;;;;;;;9.88;7.28;;;;;;;-2.97;65.87;95749.69;5056008;28;20297;-78
2021/12/23 03:49:40;;;;;;;10.63;8.32;;;;;;;-2.98;66.04;95755.69;5056140;28;20202;-78
2021/12/23 03:52:07;;;;;;;7.50;5.88;;;;;;;-3.01;65.28;95755.75;5020999;28;20199;-78
2021/12/23 03:54:34;;;;;;;12.32;7.00;;;;;;;-3.03;65.92;95749.81;5056099;28;20198;-78
2021/12/23 03:57:01;;;;;;;7.28;5.85;;;;;;;-3.04;66.07;95758.38;5056240;28;20207;-77
2021/12/23 03:59:28;;;;;;;9.23;6.90;;;;;;;-3.04;65.86;95763.50;5055827;28;20222;-77
2021/12/23 04:01:56;;;;;;;8.52;5.93;;;;;;;-3.06;66.25;95757.56;5056096;28;20208;-78
2021/12/23 04:04:23;;;;;;;12.25;7.32;;;;;;;-3.06;66.07;95749.88;5056149;28;20209;-78
2021/12/23 04:06:51;;;;;;;12.45;6.95;;;;;;;-3.00;65.55;95760.84;5056303;28;20262;-77
2021/12/23 04:09:18;;;;;;;8.40;6.00;;;;;;;-3.10;66.21;95754.22;5056258;28;20264;-78
2021/12/23 04:11:45;;;;;;;10.07;6.85;;;;;;;-3.09;66.34;95758.47;5056100;28;20703;-77
2021/12/23 04:14:12;;;;;;;9.60;7.43;;;;;;;-3.03;65.79;95765.22;5056210;28;20214;-79
2021/12/23 04:16:39;;;;;;;8.80;6.60;;;;;;;-3.00;65.50;95763.44;5055859;28;20198;-77
2021/12/23 04:19:09;;;;;;;10.90;7.30;;;;;;;-3.01;65.21;95763.47;5020819;28;20195;-77
2021/12/23 04:21:36;;;;;;;11.85;6.40;;;;;;;-2.98;65.69;95768.53;5055145;28;20821;-78
2021/12/23 04:24:04;;;;;;;10.75;7.32;;;;;;;-2.96;65.42;95774.47;5055785;28;20238;-78
2021/12/23 04:26:30;;;;;;;10.02;7.07;;;;;;;-2.96;65.29;95774.47;5020308;28;20198;-78
2021/12/23 04:28:57;;;;;;;8.38;5.93;;;;;;;-3.06;65.11;95773.81;5055489;28;20210;-78
2021/12/23 04:31:25;;;;;;;11.88;7.07;;;;;;;-3.07;65.15;95773.84;5055042;28;20213;-77
2021/12/23 04:33:55;;;;;;;13.43;6.88;;;;;;;-3.12;65.01;95771.38;5055529;28;20202;-78
2021/12/23 04:36:26;;;;;;;9.95;6.90;;;;;;;-3.13;65.37;95770.50;5055206;28;20658;-78
2021/12/23 04:38:53;;;;;;;9.98;6.80;;;;;;;-3.14;65.50;95779.09;5054971;28;20208;-78
2021/12/23 04:41:21;;;;;;;9.40;6.78;;;;;;;-3.16;66.10;95769.72;5054519;28;20804;-78
2021/12/23 04:43:47;;;;;;;13.60;7.75;;;;;;;-3.14;66.11;95766.25;5055166;28;20606;-78
2021/12/23 04:46:14;;;;;;;7.25;6.50;;;;;;;-3.13;65.61;95764.53;5054882;28;20654;-78
2021/12/23 04:48:44;;;;;;;9.80;6.55;;;;;;;-3.14;65.61;95771.38;5055645;28;20205;-78
2021/12/23 04:51:12;;;;;;;10.38;7.10;;;;;;;-3.20;65.52;95779.16;5058048;28;20214;-77
2021/12/23 04:53:40;;;;;;;11.85;7.55;;;;;;;-3.24;65.62;95771.56;5055770;28;20692;-78
2021/12/23 04:56:07;;;;;;;10.13;7.60;;;;;;;-3.24;65.90;95772.41;5055441;28;20278;-78
2021/12/23 04:58:34;;;;;;;14.20;8.02;;;;;;;-3.22;66.11;95775.78;5020332;28;20203;-78
2021/12/23 05:01:03;;;;;;;11.05;7.30;;;;;;;-3.20;65.27;95779.16;5055492;28;20723;-78
2021/12/23 05:03:30;;;;;;;9.02;6.97;;;;;;;-3.22;64.98;95778.34;5054965;28;20203;-78
2021/12/23 05:05:56;;;;;;;12.38;8.10;;;;;;;-3.26;65.13;95779.28;5054817;28;20199;-79
2021/12/23 05:08:23;;;;;;;12.98;8.13;;;;;;;-3.28;66.14;95775.91;5055244;28;20203;-78
2021/12/23 05:10:52;;;;;;;17.38;8.50;;;;;;;-3.27;65.78;95776.75;5035588;28;20596;-77
2021/12/23 05:13:19;;;;;;;12.95;8.05;;;;;;;-3.30;66.29;95776.81;5020945;28;20203;-77
2021/12/23 05:15:46;;;;;;;11.30;7.55;;;;;;;-3.29;66.46;95779.34;5055384;28;20658;-77
2021/12/23 05:18:13;;;;;;;13.20;7.50;;;;;;;-3.27;66.24;95775.03;5021065;28;20203;-77
2021/12/23 05:20:40;;;;;;;15.73;7.18;;;;;;;-3.31;65.59;95777.66;5054349;28;20230;-77
2021/12/23 05:23:07;;;;;;;11.50;7.35;;;;;;;-3.31;65.85;95775.94;5055785;28;20235;-77
2021/12/23 05:25:34;;;;;;;10.75;7.75;;;;;;;-3.40;65.95;95768.41;5055847;28;20202;-77
2021/12/23 05:28:02;;;;;;;7.47;6.70;;;;;;;-3.42;66.04;95775.28;5056286;28;20215;-77
2021/12/23 05:30:29;;;;;;;9.27;6.82;;;;;;;-3.43;65.78;95776.16;5055450;28;20202;-77
2021/12/23 05:32:56;;;;;;;10.82;7.20;;;;;;;-3.44;65.89;95774.47;5055853;28;20198;-77
2021/12/23 05:35:24;;;;;;;13.25;7.75;;;;;;;-3.47;66.17;95774.50;5056871;28;20248;-77
2021/12/23 05:37:51;;;;;;;17.88;7.68;;;;;;;-3.46;66.00;95776.22;5055314;28;20195;-77
2021/12/23 05:40:21;;;;;;;13.00;8.25;;;;;;;-3.44;66.35;95774.47;5054533;28;20227;-78
2021/12/23 05:42:49;;;;;;;9.68;6.75;;;;;;;-3.45;65.57;95770.22;5054565;28;20214;-77
2021/12/23 05:45:18;;;;;;;11.48;7.60;;;;;;;-3.47;65.78;95777.06;5055045;28;20195;-78
2021/12/23 05:47:46;;;;;;;8.35;7.15;;;;;;;-3.41;65.53;95784.69;5054980;28;20193;-77
2021/12/23 05:50:14;;;;;;;12.52;7.82;;;;;;;-3.43;65.64;95771.03;5054827;28;20216;-78
2021/12/23 05:52:41;;;;;;;18.10;6.97;;;;;;;-3.46;65.63;95783.91;5054427;28;20274;-79
2021/12/23 05:55:10;;;;;;;11.30;7.60;;;;;;;-3.49;65.65;95773.69;5055486;28;20225;-79
2021/12/23 05:57:38;;;;;;;8.38;5.85;;;;;;;-3.47;65.68;95772.81;5055268;28;20228;-79
2021/12/23 06:00:09;;;;;;;12.98;8.05;;;;;;;-3.51;66.57;95773.72;5055026;28;20215;-79
2021/12/23 06:02:38;;;;;;;13.00;9.60;;;;;;;-3.47;66.42;95777.06;5054997;28;20683;-79
2021/12/23 06:11:48;;;;;;;14.07;11.38;;;;;;;1.94;76.02;95764.31;5055135;28;20578;-80
2021/12/23 06:14:16;;;;;;;17.02;11.13;;;;;;;0.96;61.01;95778.13;5055271;28;20206;-80
2021/12/23 06:16:43;;;;;;;41.58;21.58;;;;;;;0.36;56.85;95784.34;5055363;28;20222;-80
2021/12/23 06:19:11;;;;;;;40.70;24.33;;;;;;;-0.11;55.89;95783.19;5058238;28;20206;-80
2021/12/23 06:21:38;;;;;;;35.97;21.58;;;;;;;-0.50;56.80;95791.16;5055551;28;20248;-80
2021/12/23 06:24:06;;;;;;;37.33;20.90;;;;;;;-0.93;57.41;95789.69;5054623;28;20210;-80
2021/12/23 06:26:34;;;;;;;47.58;26.33;;;;;;;-1.28;58.03;95788.00;5055325;28;20543;-80
2021/12/23 06:29:00;;;;;;;28.38;18.10;;;;;;;-1.59;59.23;95790.47;5055587;28;20201;-80
2021/12/23 06:31:27;;;;;;;15.07;12.40;;;;;;;-1.83;60.29;95791.03;5057873;28;20225;-79
2021/12/23 06:33:55;;;;;;;21.05;12.48;;;;;;;-2.02;60.87;95785.47;5060267;28;20195;-80
2021/12/23 06:36:23;;;;;;;16.90;10.55;;;;;;;-2.30;61.76;95789.50;5025164;28;20210;-79
2021/12/23 06:38:50;;;;;;;11.13;10.00;;;;;;;-2.34;62.47;95790.41;5062126;28;20285;-80
2021/12/23 06:41:18;;;;;;;24.25;12.20;;;;;;;-2.44;63.50;95788.91;5059441;28;20218;-79
2021/12/23 06:43:46;;;;;;;16.50;10.98;;;;;;;-2.55;63.20;95789.97;5055514;28;20214;-80
2021/12/23 06:46:13;;;;;;;13.23;8.95;;;;;;;-2.61;63.87;95790.06;5054892;28;20210;-80
2021/12/23 06:48:40;;;;;;;14.88;10.10;;;;;;;-2.72;64.44;95786.03;5054155;28;20198;-83
2021/12/23 06:51:07;;;;;;;21.77;13.80;;;;;;;-2.72;64.44;95779.16;5054295;28;20210;-80
2021/12/23 06:53:37;;;;;;;25.85;15.35;;;;;;;-2.69;64.94;95779.09;5052558;28;20204;-79
2021/12/23 06:56:05;;;;;;;26.58;13.15;;;;;;;-2.62;64.64;95783.25;5054841;28;20537;-80
2021/12/23 06:58:33;;;;;;;16.00;9.85;;;;;;;-2.56;64.96;95787.44;5020487;28;20209;-79
2021/12/23 07:01:00;;;;;;;28.73;14.48;;;;;;;-2.59;66.49;95783.22;5053765;28;20650;-80
2021/12/23 07:03:40;;;;;;;28.30;18.30;;;;;;;-2.74;67.63;95792.91;5055431;28;20187;-79
2021/12/23 07:06:07;;;;;;;44.70;24.63;;;;;;;-2.87;68.99;95784.59;5058775;28;20202;-78
2021/12/23 07:08:37;;;;;;;57.95;32.30;;;;;;;-3.00;71.21;95780.56;5058585;28;20203;-79
2021/12/23 07:11:06;;;;;;;77.82;40.70;;;;;;;-3.02;72.04;95783.16;5058496;28;20201;-79
2021/12/23 07:13:33;;;;;;;75.13;39.17;;;;;;;-3.26;72.64;95789.53;5059537;28;20191;-78
2021/12/23 07:16:02;;;;;;;76.53;36.55;;;;;;;-3.26;73.41;95788.69;5058313;28;20259;-78
2021/12/23 07:18:28;;;;;;;68.18;33.45;;;;;;;-3.28;73.80;95788.72;5024132;28;20252;-79
2021/12/23 07:20:55;;;;;;;65.38;34.03;;;;;;;-3.19;74.17;95788.56;5039119;28;20226;-79
2021/12/23 07:23:22;;;;;;;59.90;33.75;;;;;;;-3.06;73.88;95785.81;5058158;28;20205;-78
2021/12/23 07:25:49;;;;;;;65.63;35.58;;;;;;;-3.20;74.15;95789.44;5057683;28;20194;-79
2021/12/23 07:28:17;;;;;;;83.30;38.13;;;;;;;-3.06;74.04;95796.06;5057515;28;20289;-77
2021/12/23 07:30:44;;;;;;;65.93;34.65;;;;;;;-2.94;74.22;95796.69;5060104;28;20201;-78
2021/12/23 07:33:11;;;;;;;62.67;37.55;;;;;;;-2.86;74.13;95807.69;5062305;28;20204;-77
2021/12/23 07:35:39;;;;;;;60.92;35.55;;;;;;;-2.94;74.40;95806.94;5070072;28;20203;-79
2021/12/23 07:38:12;;;;;;;69.47;34.85;;;;;;;-2.91;74.47;95808.63;5058383;28;20202;-78
2021/12/23 07:40:39;;;;;;;69.82;35.35;;;;;;;-2.77;75.06;95804.09;5057894;28;20229;-79
2021/12/23 07:43:41;;;;;;;62.78;33.42;;;;;;;-2.63;74.38;95796.97;5057925;28;20218;-78
2021/12/23 07:46:11;;;;;;;46.00;25.65;;;;;;;-2.43;72.91;95813.72;5071943;28;20197;-79
2021/12/23 07:48:38;;;;;;;50.70;25.80;;;;;;;-2.29;72.31;95802.31;5078368;28;20241;-78
2021/12/23 07:51:06;;;;;;;34.92;23.05;;;;;;;-2.10;71.58;95805.31;5077114;28;20209;-80
2021/12/23 07:53:33;;;;;;;69.32;32.95;;;;;;;-1.95;71.04;95797.28;5077288;28;20213;-80
2021/12/23 07:56:00;;;;;;;57.90;30.13;;;;;;;-1.85;70.96;95800.50;5064958;28;20210;-79
2021/12/23 07:58:27;;;;;;;49.28;27.95;;;;;;;-1.74;70.67;95795.94;5056343;28;20210;-79
2021/12/23 08:00:55;;;;;;;41.70;24.95;;;;;;;-1.64;71.39;95794.88;5058115;28;20250;-80
2021/12/23 08:03:24;;;;;;;44.15;27.48;;;;;;;-1.63;71.41;95796.56;5036369;28;20440;-80
2021/12/23 08:05:52;;;;;;;44.85;24.00;;;;;;;-1.52;71.51;95798.88;5037295;28;20815;-81
2021/12/23 08:08:20;;;;;;;37.67;21.73;;;;;;;-1.44;71.79;95804.72;5037343;28;20226;-80
2021/12/23 08:10:48;;;;;;;41.20;23.20;;;;;;;-1.51;71.71;95800.56;5036541;28;20198;-79
2021/12/23 08:13:15;;;;;;;28.13;17.73;;;;;;;-1.43;69.85;95800.41;5036890;28;20608;-79
2021/12/23 08:15:42;;;;;;;29.83;18.95;;;;;;;-1.32;70.54;95801.84;5018378;28;20195;-79
2021/12/23 08:18:09;;;;;;;47.78;20.90;;;;;;;-1.36;71.12;95802.81;5018387;28;20199;-78
2021/12/23 08:20:37;;;;;;;31.15;19.67;;;;;;;-1.52;70.43;95801.47;5049951;28;20648;-79
2021/12/23 08:23:04;;;;;;;40.25;20.83;;;;;;;-1.90;72.65;95798.03;5056840;28;20230;-78
2021/12/23 08:25:32;;;;;;;26.30;17.60;;;;;;;-2.18;73.91;95794.38;5057477;28;20194;-78
2021/12/23 08:27:58;;;;;;;39.33;21.80;;;;;;;-1.92;73.73;95791.25;5056719;28;20198;-78
2021/12/23 08:30:26;;;;;;;26.60;18.27;;;;;;;-1.73;73.65;95794.25;5056303;28;20203;-79
2021/12/23 08:32:53;;;;;;;31.15;20.65;;;;;;;-1.61;73.79;95783.66;5054932;28;20199;-78
2021/12/23 08:35:21;;;;;;;31.80;19.95;;;;;;;-1.46;73.52;95783.28;5055599;28;20229;-78
2021/12/23 08:37:50;;;;;;;30.98;20.17;;;;;;;-1.44;73.15;95781.56;5055910;28;20691;-79
2021/12/23 08:40:57;;;;;;;;;;;;;;;;;;;;;
2021/12/23 08:43:24;;;;;;;28.27;18.20;;;;;;;-1.34;72.47;95785.59;4942187;28;20676;-78
2021/12/23 08:45:51;;;;;;;33.28;19.02;;;;;;;-1.34;72.22;95775.28;4974092;28;20572;-79
2021/12/23 08:48:18;;;;;;;28.13;17.38;;;;;;;-1.51;73.03;95771.44;4973894;28;20209;-79
2021/12/23 08:50:46;;;;;;;23.20;14.48;;;;;;;-1.40;72.96;95775.44;4973684;28;20216;-79
2021/12/23 08:53:14;;;;;;;25.23;16.38;;;;;;;-1.53;72.01;95775.75;4973495;28;20655;-79
2021/12/23 08:55:41;;;;;;;29.00;15.70;;;;;;;-1.69;73.26;95775.28;4973930;28;20237;-79
2021/12/23 08:58:08;;;;;;;20.80;14.20;;;;;;;-1.86;73.65;95770.53;4973861;28;20240;-79
2021/12/23 09:00:38;;;;;;;30.27;15.05;;;;;;;-1.96;74.50;95771.63;4973356;28;20212;-79
2021/12/23 09:03:07;;;;;;;29.65;17.45;;;;;;;-1.72;74.40;95762.50;4973175;28;20209;-79
2021/12/23 09:05:36;;;;;;;27.05;17.38;;;;;;;-1.74;72.82;95753.94;4974040;28;20208;-79
2021/12/23 09:08:05;;;;;;;19.35;11.60;;;;;;;-1.98;72.74;95761.38;4973759;28;20197;-78
2021/12/23 09:10:35;;;;;;;17.88;11.68;;;;;;;-2.01;73.47;95748.56;4973073;28;20208;-80
2021/12/23 09:13:03;;;;;;;26.65;15.40;;;;;;;-1.93;72.96;95744.09;4987089;28;20242;-79
2021/12/23 09:15:30;;;;;;;32.58;15.82;;;;;;;-1.70;73.84;95740.16;5054702;28;20209;-79
2021/12/23 09:17:56;;;;;;;29.52;17.98;;;;;;;-1.51;74.86;95738.81;5054469;28;20199;-79
2021/12/23 09:20:23;;;;;;;24.77;15.50;;;;;;;-1.35;74.42;95737.56;5054139;28;20534;-79
2021/12/23 09:22:52;;;;;;;28.67;16.05;;;;;;;-1.38;73.66;95732.50;5054173;28;20235;-79
2021/12/23 09:25:24;;;;;;;21.95;15.68;;;;;;;-1.56;72.74;95727.78;5035138;28;20203;-79
2021/12/23 09:28:03;;;;;;;25.15;14.02;;;;;;;-1.41;72.89;95724.84;5036389;28;20553;-78
2021/12/23 09:33:16;;;;;;;27.40;17.00;;;;;;;-1.10;73.77;95712.03;5054119;28;20202;-79
2021/12/23 09:35:43;;;;;;;23.55;15.73;;;;;;;-1.05;73.43;95711.91;5035421;28;20661;-79
2021/12/23 09:38:11;;;;;;;27.38;15.55;;;;;;;-1.08;72.39;95704.28;5053924;28;20306;-79
2021/12/23 09:40:38;;;;;;;27.30;14.32;;;;;;;-1.05;71.42;95707.59;5054033;28;20669;-79
2021/12/23 09:43:08;;;;;;;26.25;14.45;;;;;;;-1.07;71.65;95701.66;5054277;28;20218;-78
2021/12/23 09:45:37;;;;;;;21.63;14.60;;;;;;;-1.14;71.16;95705.28;5043282;28;20200;-78
2021/12/23 09:48:04;;;;;;;18.20;13.77;;;;;;;-0.99;71.29;95704.03;5033887;28;20677;-78
2021/12/23 09:50:34;;;;;;;28.23;15.73;;;;;;;-0.88;70.97;95703.72;5033797;28;20211;-78
2021/12/23 09:53:04;;;;;;;28.50;15.63;;;;;;;-0.86;70.45;95695.09;5033482;28;20206;-78
2021/12/23 09:55:33;;;;;;;27.33;16.67;;;;;;;-0.78;70.17;95687.97;5042682;28;20198;-80
2021/12/23 09:58:00;;;;;;;24.13;14.45;;;;;;;-0.64;69.57;95685.00;5052880;28;20301;-79
2021/12/23 10:00:32;;;;;;;18.00;12.20;;;;;;;-0.63;69.53;95676.38;5018077;28;20222;-80
2021/12/23 10:02:59;;;;;;;20.70;13.18;;;;;;;-0.46;68.94;95669.00;5044481;28;20242;-80
2021/12/23 10:05:29;;;;;;;27.35;13.45;;;;;;;-0.26;68.21;95650.38;5035641;28;20210;-79
2021/12/23 10:07:57;;;;;;;30.00;16.00;;;;;;;-0.28;67.81;95654.75;5035024;28;20214;-79
2021/12/23 10:10:29;;;;;;;31.88;16.60;;;;;;;-0.08;67.17;95644.63;5040723;28;20222;-79
2021/12/23 10:38:09;;;;;;;18.25;12.77;;;;;;;0.32;62.22;95622.72;4971984;28;20370;-80
2021/12/23 10:40:41;;;;;;;18.40;12.10;;;;;;;0.13;63.59;95626.78;4940030;28;20211;-79
2021/12/23 10:43:11;;;;;;;24.48;14.40;;;;;;;0.18;62.53;95619.75;4971424;28;20225;-80
2021/12/23 10:45:52;;;;;;;22.40;12.50;;;;;;;0.36;62.70;95618.31;4971494;28;20245;-79
2021/12/23 10:48:21;;;;;;;17.58;12.02;;;;;;;-0.04;62.62;95620.44;4971234;28;20593;-79
2021/12/23 10:50:51;;;;;;;20.95;11.30;;;;;;;-0.01;62.60;95615.16;4971666;28;20300;-79
2021/12/23 10:53:38;;;;;;;17.50;11.20;;;;;;;0.12;63.22;95623.38;5044333;28;20202;-80
2021/12/23 10:59:13;;;;;;;17.95;10.95;;;;;;;0.35;62.17;95608.88;5052753;28;20560;-79
2021/12/23 11:02:02;;;;;;;19.25;10.57;;;;;;;0.49;61.59;95594.59;5052484;28;20230;-80
2021/12/23 11:04:36;;;;;;;20.02;12.52;;;;;;;0.63;61.83;95577.78;5052534;28;20199;-79
2021/12/23 11:07:17;;;;;;;22.80;11.35;;;;;;;0.63;61.70;95588.97;5052464;28;20704;-79
2021/12/23 11:10:00;;;;;;;21.55;11.20;;;;;;;0.34;63.36;95589.13;5040939;28;20575;-80
2021/12/23 11:38:14;;;;;;;22.13;11.38;;;;;;;0.84;63.29;95541.69;5029788;28;20202;-80
2021/12/23 11:40:57;;;;;;;19.25;12.27;;;;;;;0.98;62.50;95532.59;5017973;28;20562;-80
2021/12/23 11:43:30;;;;;;;16.80;11.40;;;;;;;1.01;63.34;95530.75;5013750;28;20199;-80
2021/12/23 11:45:58;;;;;;;16.13;11.73;;;;;;;0.94;62.42;95526.72;5015011;28;20661;-80
2021/12/23 11:48:25;;;;;;;22.17;11.43;;;;;;;1.09;60.98;95530.44;5010928;28;20208;-81
2021/12/23 11:51:05;;;;;;;20.90;12.45;;;;;;;0.98;62.47;95525.69;5014741;28;20199;-80
2021/12/23 11:53:35;;;;;;;15.80;11.18;;;;;;;1.24;61.56;95525.56;5017216;28;20199;-80
2021/12/23 11:56:06;;;;;;;18.93;9.57;;;;;;;1.14;59.97;95518.19;5035552;28;20203;-80
2021/12/23 11:58:33;;;;;;;15.38;9.95;;;;;;;1.08;60.17;95514.09;5041883;28;20456;-80
2021/12/23 12:01:08;;;;;;;16.02;10.73;;;;;;;1.23;60.11;95517.84;5050972;28;20203;-80
2021/12/23 12:03:52;;;;;;;20.20;13.55;;;;;;;1.24;59.80;95510.03;5050664;28;20201;-80
2021/12/23 12:06:23;;;;;;;15.77;10.25;;;;;;;1.15;59.74;95514.69;5056698;28;20211;-79
2021/12/23 12:08:53;;;;;;;18.63;11.65;;;;;;;0.90;59.97;95502.72;5056171;28;20571;-80
2021/12/23 12:11:22;;;;;;;17.65;10.65;;;;;;;1.02;61.06;95506.59;5055128;28;20199;-79
2021/12/23 12:13:49;;;;;;;18.58;11.27;;;;;;;0.95;61.10;95504.28;5056229;28;20196;-79
2021/12/23 12:16:31;;;;;;;16.02;10.85;;;;;;;0.66;61.69;95503.63;5037686;28;20205;-80
2021/12/23 12:18:59;;;;;;;19.58;12.57;;;;;;;0.84;61.19;95502.09;5056788;28;20214;-79
2021/12/23 12:21:31;;;;;;;14.43;8.50;;;;;;;1.03;61.00;95492.75;5056451;28;20573;-80
2021/12/23 12:24:18;;;;;;;25.15;12.98;;;;;;;1.19;60.94;95496.47;5055973;28;20286;-79
2021/12/23 12:26:54;;;;;;;16.75;9.60;;;;;;;1.03;60.49;95491.94;5037819;28;20207;-79
2021/12/23 12:29:26;;;;;;;20.15;12.68;;;;;;;1.06;60.37;95491.81;5055950;28;20190;-79
2021/12/23 12:31:53;;;;;;;15.63;10.05;;;;;;;1.05;60.96;95495.28;5056032;28;20206;-79
2021/12/23 12:34:30;;;;;;;15.35;10.77;;;;;;;1.19;59.98;95499.03;5056102;28;20207;-80
2021/12/23 12:36:59;;;;;;;21.13;10.05;;;;;;;1.19;60.20;95499.03;5056776;28;20198;-80
2021/12/23 12:39:32;;;;;;;16.45;9.48;;;;;;;1.19;60.22;95496.47;5056319;28;20203;-78